Latest Weather Observations for Yulara

IDD60801

Issued at 1:05 pm CST Friday 19 September 2014 (issued every 30 minutes, with the page automatically refreshed every 10 minutes)

About weather observations | Map of weather stations | Latest weather observations for NT | Other Formats
Station Details ID: 015635 Name: YULARA AIRPORT Lat: -25.19 Lon: 130.97 Height: 492.0 m
Data from the previous 72 hours. | See also: Recent months at Yulara
Date/Time
CST
Temp
°C
App
Temp
°C
Dew
Point
Rel
Hum
%
Delta-T
°C
Wind Press
QNH
hPa
Press
MSL
hPa
Rain
since 9 am
mm
Dir
 
Spd
km/h
Gust
km/h
Spd
kts
Gust
kts
19/01:00pm 30.6 26.8 -0.9 13 15.2 NNE 9 22 5 12 1016.4 1014.6 0.0
19/12:30pm 29.7 25.2 -0.6 14 14.6 N 13 22 7 12 1017.1 1015.3 0.0
19/12:00pm 29.1 24.1 -1.1 14 14.4 ENE 15 24 8 13 1017.7 1015.9 0.0
19/11:30am 28.0 22.6 -1.0 15 13.7 ENE 17 26 9 14 1018.2 1016.4 0.0
19/11:00am 26.2 20.5 -0.8 17 12.7 ENE 19 28 10 15 1018.7 1017.0 0.0
19/10:30am 25.9 20.3 -0.2 18 12.3 E 19 30 10 16 1019.2 1017.4 0.0
19/10:00am 24.2 17.5 -0.9 19 11.6 E 24 33 13 18 1019.2 1017.4 0.0
19/09:30am 22.7 16.8 -0.7 21 10.7 ESE 20 30 11 16 1019.4 1017.6 0.0
19/09:00am 21.7 15.1 -0.3 23 10.0 E 24 32 13 17 1019.7 1017.9 0.0
19/08:30am 19.9 14.1 -0.1 26 9.0 ESE 20 30 11 16 1019.6 1017.8 0.0
19/08:00am 18.7 13.1 -0.2 28 8.4 ESE 19 26 10 14 1019.2 1017.4 0.0
19/07:30am 18.1 12.6 0.3 30 8.0 ESE 19 24 10 13 1018.8 1017.1 0.0
19/07:00am 17.4 11.7 0.6 32 7.5 ESE 20 28 11 15 1018.4 1016.7 0.0
19/06:30am 16.4 11.3 0.9 35 6.9 SSE 17 22 9 12 1018.4 1016.7 0.0
19/06:00am 16.0 11.6 0.6 35 6.8 SSE 13 17 7 9 1018.0 1016.2 0.0
19/05:30am 17.3 12.5 0.5 32 7.5 ESE 15 20 8 11 1017.3 1015.5 0.0
19/05:00am 17.6 12.5 0.7 32 7.6 E 17 22 9 12 1017.1 1015.3 0.0
19/04:30am 17.9 12.8 1.0 32 7.7 ESE 17 22 9 12 1017.3 1015.5 0.0
19/04:00am 18.0 13.3 1.1 32 7.7 ESE 15 22 8 12 1017.5 1015.7 0.0
19/03:30am 18.0 13.0 1.5 33 7.6 E 17 22 9 12 1017.5 1015.7 0.0
19/03:00am 18.4 13.1 1.9 33 7.7 E 19 28 10 15 1018.1 1016.3 0.0
19/02:30am 18.6 14.5 2.0 33 7.7 E 13 20 7 11 1018.4 1016.7 0.0
19/02:00am 18.4 13.0 2.3 34 7.6 E 20 28 11 15 1018.2 1016.4 0.0
19/01:30am 18.4 13.2 2.7 35 7.4 E 19 24 10 13 1018.3 1016.5 0.0
19/01:00am 18.6 14.6 2.9 35 7.5 SE 13 17 7 9 1019.4 1017.6 0.0
19/12:30am 19.3 14.5 2.6 33 7.9 ESE 17 24 9 13 1019.3 1017.5 0.0
19/12:00am 19.6 14.9 2.9 33 8.0 SE 17 22 9 12 1019.4 1017.6 0.0
 
Date/Time
CST
Temp
°C
App
Temp
°C
Dew
Point
Rel
Hum
%
Delta-T
°C
Wind Press
QNH
hPa
Press
MSL
hPa
Rain
since 9 am
mm
Dir
 
Spd
km/h
Gust
km/h
Spd
kts
Gust
kts
18/11:30pm 20.1 15.4 3.3 33 8.1 SE 17 24 9 13 1019.6 1017.8 0.0
18/11:00pm 20.9 15.7 3.6 32 8.5 E 20 30 11 16 1019.2 1017.4 0.0
18/10:30pm 21.5 15.6 3.7 31 8.8 ESE 24 37 13 20 1019.3 1017.5 0.0
18/10:00pm 22.0 15.3 3.6 30 9.1 ESE 28 39 15 21 1019.1 1017.3 0.0
18/09:30pm 22.5 15.5 4.1 30 9.2 ESE 30 43 16 23 1018.8 1017.1 0.0
18/09:00pm 23.0 15.4 4.0 29 9.5 SE 33 54 18 29 1018.5 1016.8 0.0
18/08:34pm 23.6 15.6 4.0 28 9.8 SE 35 54 19 29 1017.9 1016.1 0.0
18/08:30pm 23.8 15.5 4.2 28 9.9 SE 37 54 20 29 1017.6 1015.8 0.0
18/08:28pm 23.8 15.9 4.2 28 9.9 SE 35 54 19 29 1017.6 1015.8 0.0
18/08:00pm 25.2 18.0 4.9 27 10.5 SE 32 48 17 26 1018.1 1016.3 0.0
18/07:30pm 25.7 18.3 4.8 26 10.8 S 33 43 18 23 1017.3 1015.5 0.0
18/07:00pm 27.5 16.5 3.2 21 12.4 S 50 76 27 41 1015.9 1014.1 0.0
18/06:56pm 28.1 17.0 2.3 19 13.0 S 50 74 27 40 1015.4 1013.6 0.0
18/06:55pm 28.4 20.6 1.8 18 13.3 WSW 32 63 17 34 1015.5 1013.7 0.0
18/06:30pm 30.0 25.7 -1.4 13 15.0 NNW 11 17 6 9 1015.2 1013.4 0.0
18/06:00pm 31.5 27.8 -2.5 11 16.1 N 7 9 4 5 1014.9 1013.1 0.0
18/05:30pm 31.9 27.5 0.1 13 15.8 NNW 13 22 7 12 1014.5 1012.7 0.0
18/05:01pm 31.3 23.6 -2.6 11 16.0 W 28 67 15 36 1014.8 1012.9 0.0
18/05:00pm 31.9 25.1 -2.2 11 16.3 W 24 67 13 36 1014.5 1012.7 0.0
18/04:30pm 33.0 25.9 -4.0 9 17.3 NW 24 33 13 18 1014.5 1012.7 0.0
18/04:00pm 34.0 28.0 -3.3 9 17.7 NW 19 28 10 15 1014.8 1012.9 0.0
18/03:30pm 34.5 28.3 -2.9 9 18.0 NW 20 28 11 15 1015.0 1013.2 0.0
18/03:00pm 33.0 27.1 -2.6 10 17.0 N 19 28 10 15 1015.3 1013.5 0.0
18/02:30pm 31.9 27.1 -2.2 11 16.3 NE 13 20 7 11 1015.8 1014.0 0.0
18/02:00pm 31.7 26.3 -1.2 12 15.9 N 17 24 9 13 1016.3 1014.5 0.0
18/01:30pm 31.2 27.1 -0.5 13 15.5 NNE 11 19 6 10 1017.1 1015.3 0.0
18/01:00pm 30.2 24.8 -1.2 13 15.1 NNE 17 28 9 15 1017.9 1016.1 0.0
18/12:30pm 29.3 25.2 0.0 15 14.2 NE 11 19 6 10 1018.4 1016.7 0.0
18/12:00pm 29.1 24.8 0.7 16 13.9 ENE 13 22 7 12 1019.0 1017.2 0.0
18/11:30am 27.6 22.8 0.4 17 13.1 ENE 15 26 8 14 1019.5 1017.7 0.0
18/11:00am 25.6 21.4 1.7 21 11.7 E 13 20 7 11 1020.4 1018.7 0.0
18/10:30am 24.1 19.5 1.7 23 10.8 E 15 24 8 13 1020.8 1019.1 0.0
18/10:00am 22.2 17.7 2.3 27 9.6 E 15 22 8 12 1021.2 1019.4 0.0
18/09:30am 21.9 16.4 2.1 27 9.5 E 20 28 11 15 1021.1 1019.3 0.0
18/09:00am 21.5 15.7 2.2 28 9.2 E 22 30 12 16 1021.1 1019.3 0.0
18/08:30am 19.9 14.1 2.3 31 8.3 E 22 32 12 17 1020.7 1019.0 0.0
18/08:00am 18.8 13.9 2.2 33 7.8 E 17 22 9 12 1020.6 1018.9 0.0
18/07:30am 17.4 12.9 2.2 36 7.0 ESE 15 20 8 11 1020.4 1018.7 0.0
18/07:00am 16.5 12.8 2.2 38 6.6 SE 11 15 6 8 1020.2 1018.5 0.0
18/06:30am 16.5 12.0 2.2 38 6.6 E 15 19 8 10 1019.6 1017.8 0.0
18/06:00am 16.4 12.7 2.1 38 6.6 ESE 11 17 6 9 1019.6 1017.8 0.0
18/05:30am 16.8 12.6 1.7 36 6.9 ESE 13 17 7 9 1019.5 1017.7 0.0
18/05:00am 17.2 12.2 1.6 35 7.1 ESE 17 22 9 12 1019.3 1017.5 0.0
18/04:30am 17.1 12.2 1.9 36 7.0 SE 17 20 9 11 1019.2 1017.4 0.0
18/04:00am 17.1 12.9 1.9 36 7.0 SE 13 17 7 9 1019.3 1017.5 0.0
18/03:30am 17.0 13.1 1.4 35 7.1 ESE 11 15 6 8 1019.4 1017.6 0.0
18/03:00am 17.7 12.8 1.7 34 7.4 E 17 22 9 12 1019.3 1017.5 0.0
18/02:30am 17.5 12.6 1.9 35 7.2 ESE 17 24 9 13 1019.7 1017.9 0.0
18/02:00am 17.3 13.1 1.7 35 7.2 ESE 13 17 7 9 1020.0 1018.2 0.0
18/01:30am 17.5 13.3 1.5 34 7.3 SE 13 15 7 8 1020.1 1018.3 0.0
18/01:00am 18.4 15.4 1.9 33 7.7 E 7 11 4 6 1020.4 1018.7 0.0
18/12:30am 18.3 14.5 1.8 33 7.6 ESE 11 13 6 7 1020.4 1018.7 0.0
18/12:00am 18.5 16.7 1.5 32 7.8 CALM 0 0 0 0 1020.4 1018.7 0.0
 
Date/Time
CST
Temp
°C
App
Temp
°C
Dew
Point
Rel
Hum
%
Delta-T
°C
Wind Press
QNH
hPa
Press
MSL
hPa
Rain
since 9 am
mm
Dir
 
Spd
km/h
Gust
km/h
Spd
kts
Gust
kts
17/11:30pm 19.1 15.7 1.6 31 8.1 SSE 9 11 5 6 1020.5 1018.8 0.0
17/11:00pm 21.2 17.4 1.5 27 9.3 E 11 15 6 8 1020.4 1018.7 0.0
17/10:30pm 21.8 17.7 2.0 27 9.4 ESE 13 17 7 9 1020.4 1018.7 0.0
17/10:00pm 21.0 17.2 1.8 28 9.1 SE 11 13 6 7 1020.6 1018.9 0.0
17/09:30pm 21.3 17.9 2.1 28 9.1 SE 9 13 5 7 1020.3 1018.6 0.0
17/09:00pm 21.0 17.6 1.8 28 9.1 S 9 9 5 5 1020.0 1018.2 0.0
17/08:30pm 22.5 19.0 1.5 25 10.0 SSE 9 11 5 6 1019.6 1017.8 0.0
17/08:00pm 23.5 20.1 1.8 24 10.5 SSE 9 13 5 7 1019.2 1017.4 0.0
17/07:30pm 24.8 20.6 1.7 22 11.2 ESE 13 20 7 11 1018.5 1016.8 0.0
17/07:00pm 25.6 20.1 1.7 21 11.7 ESE 20 28 11 15 1018.0 1016.2 0.0
17/06:30pm 26.6 21.1 1.8 20 12.2 E 20 24 11 13 1017.9 1016.1 0.0
17/06:00pm 27.3 23.1 1.7 19 12.6 SE 13 19 7 10 1018.2 1016.4 0.0
17/05:30pm 27.5 22.8 1.1 18 12.9 ESE 15 20 8 11 1018.0 1016.2 0.0
17/05:00pm 27.8 23.9 1.3 18 13.1 E 11 15 6 8 1017.9 1016.1 0.0
17/04:30pm 28.0 23.8 1.5 18 13.1 NE 13 22 7 12 1017.8 1016.0 0.0
17/04:00pm 27.8 23.9 1.3 18 13.1 SE 11 22 6 12 1017.6 1015.8 0.0
17/03:30pm 27.3 22.4 1.7 19 12.6 ENE 17 26 9 14 1017.6 1015.8 0.0
17/03:00pm 28.5 23.6 1.9 18 13.3 E 17 24 9 13 1017.6 1015.8 0.0
17/02:30pm 26.4 22.2 1.7 20 12.1 NE 13 24 7 13 1018.2 1016.4 0.0
17/02:00pm 26.7 21.5 2.6 21 12.1 ENE 19 28 10 15 1018.3 1016.5 0.0
17/01:30pm 25.3 19.8 2.1 22 11.4 ENE 20 30 11 16 1019.4 1017.6 0.0
17/01:00pm 25.1 19.3 2.5 23 11.2 ENE 22 30 12 16 1019.5 1017.7 0.0
17/12:30pm 24.7 18.5 2.2 23 11.0 NE 24 33 13 18 1019.9 1018.1 0.0
17/12:00pm 23.7 16.8 2.5 25 10.4 ENE 28 37 15 20 1020.1 1018.3 0.0
17/11:30am 23.0 15.7 2.5 26 10.0 ENE 30 39 16 21 1020.5 1018.8 0.0
17/11:00am 23.0 16.5 2.5 26 10.0 NE 26 35 14 19 1021.2 1019.4 0.0
17/10:30am 22.2 14.0 2.8 28 9.4 NE 35 43 19 23 1021.4 1019.6 0.0
17/10:00am 21.8 14.0 3.0 29 9.2 NE 33 46 18 25 1021.5 1019.7 0.0
17/09:30am 21.6 12.7 2.8 29 9.1 ENE 39 52 21 28 1021.5 1019.7 0.0
17/09:00am 20.0 12.2 2.8 32 8.2 ENE 33 46 18 25 1021.8 1020.0 0.0
17/08:30am 19.4 13.8 3.6 35 7.6 E 22 32 12 17 1022.1 1020.4 0.0
17/08:00am 18.5 13.8 3.2 36 7.3 E 17 26 9 14 1021.6 1019.8 0.0
17/07:30am 18.2 13.1 3.3 37 7.1 E 19 26 10 14 1021.2 1019.4 0.0
17/07:00am 18.2 13.0 3.3 37 7.1 ESE 20 28 11 15 1020.8 1019.1 0.0
17/06:30am 18.0 12.7 3.1 37 7.1 ESE 20 32 11 17 1020.4 1018.7 0.0
17/06:00am 17.6 12.8 2.8 37 6.9 ESE 17 20 9 11 1020.3 1018.6 0.0
17/05:30am 17.6 12.8 2.8 37 6.9 SE 17 24 9 13 1020.2 1018.5 0.0
17/05:00am 17.9 13.2 3.0 37 7.1 SE 17 22 9 12 1019.7 1017.9 0.0
17/04:30am 18.4 13.1 3.1 36 7.3 SE 20 28 11 15 1019.5 1017.7 0.0
17/04:00am 18.4 13.3 3.1 36 7.3 SE 19 24 10 13 1019.2 1017.4 0.0
17/03:30am 19.0 14.3 3.2 35 7.6 SE 17 24 9 13 1019.2 1017.4 0.0
17/03:00am 19.8 14.1 3.1 33 8.0 SSE 22 32 12 17 1019.3 1017.5 0.0
17/02:30am 20.3 15.0 3.1 32 8.3 SSE 20 28 11 15 1019.3 1017.5 0.0
17/02:00am 20.7 15.8 2.0 29 8.9 SSE 17 24 9 13 1019.3 1017.5 0.0
17/01:30am 21.6 15.4 2.3 28 9.3 SE 24 35 13 19 1019.0 1017.2 0.0
17/01:00am 21.9 16.6 2.1 27 9.5 SSE 19 28 10 15 1019.4 1017.6 0.0
17/12:30am 22.0 16.8 2.2 27 9.5 SSE 19 28 10 15 1019.3 1017.5 0.0
17/12:00am 22.2 16.9 1.8 26 9.7 SSE 19 30 10 16 1019.2 1017.4 0.0
 
Date/Time
CST
Temp
°C
App
Temp
°C
Dew
Point
Rel
Hum
%
Delta-T
°C
Wind Press
QNH
hPa
Press
MSL
hPa
Rain
since 9 am
mm
Dir
 
Spd
km/h
Gust
km/h
Spd
kts
Gust
kts
16/11:30pm 22.4 17.0 1.4 25 10.0 SSE 19 30 10 16 1018.5 1016.8 0.0
16/11:00pm 22.6 18.0 1.6 25 10.0 S 15 22 8 12 1018.2 1016.4 0.0
16/10:30pm 23.1 18.4 0.9 23 10.5 SSE 15 20 8 11 1017.9 1016.1 0.0
16/10:00pm 24.5 19.9 1.4 22 11.1 ESE 15 19 8 10 1017.1 1015.3 0.0
16/09:30pm 24.7 19.6 0.9 21 11.4 E 17 24 9 13 1016.5 1014.7 0.0
16/09:00pm 25.1 19.5 -0.1 19 11.9 ESE 19 26 10 14 1016.4 1014.6 0.0
16/08:30pm 24.2 19.6 -0.9 19 11.6 SE 13 17 7 9 1015.9 1014.1 0.0
16/08:00pm 25.1 20.9 -0.9 18 12.1 ESE 11 13 6 7 1015.6 1013.8 0.0
16/07:30pm 26.0 22.2 -0.9 17 12.6 SE 9 11 5 6 1015.3 1013.5 0.0
16/07:00pm 26.7 23.2 -1.2 16 13.0 S 7 11 4 6 1015.1 1013.3 0.0
16/06:30pm 28.6 25.1 -1.5 14 14.2 SSE 7 11 4 6 1014.9 1013.1 0.0
16/06:00pm 30.2 26.2 -2.3 12 15.3 E 9 15 5 8 1014.5 1012.7 0.0
16/05:30pm 31.2 28.1 -2.7 11 16.0 WSW 4 15 2 8 1014.2 1012.4 0.0
16/05:00pm 30.6 26.5 -3.2 11 15.7 NNE 9 15 5 8 1014.3 1012.5 0.0
16/04:30pm 30.9 26.6 -1.8 12 15.6 ENE 11 22 6 12 1014.3 1012.5 0.0
16/04:00pm 31.3 27.2 -0.4 13 15.5 E 11 17 6 9 1014.3 1012.5 0.0
16/03:30pm 31.2 26.7 -0.5 13 15.5 N 13 20 7 11 1014.5 1012.7 0.0
16/03:00pm 30.1 24.5 -0.3 14 14.8 NE 19 26 10 14 1015.0 1013.2 0.0
16/02:30pm 29.9 24.8 0.5 15 14.5 NE 17 32 9 17 1015.3 1013.5 0.0
16/02:00pm 28.8 24.0 0.5 16 13.8 NE 15 32 8 17 1016.2 1014.4 0.0
16/01:30pm 28.8 23.1 0.5 16 13.8 NE 20 30 11 16 1016.8 1015.0 0.0

Other Formats:

Comma delimited format used in spreadsheet applications
http://www.bom.gov.au/fwo/IDD60801/IDD60801.94462.axf

JavaScript Object Notation format (JSON) in row-major order
http://www.bom.gov.au/fwo/IDD60801/IDD60801.94462.json